createdAt,value
2018-03-21T00:01:19.521Z,10.43
2018-03-21T00:03:47.767Z,11.00
2018-03-21T00:06:15.996Z,8.63
2018-03-21T00:08:44.253Z,10.63
2018-03-21T00:11:12.478Z,9.23
2018-03-21T00:13:40.716Z,7.13
2018-03-21T00:16:08.945Z,11.17
2018-03-21T00:18:37.956Z,10.23
2018-03-21T00:21:06.177Z,8.40
2018-03-21T00:23:34.413Z,9.47
2018-03-21T00:26:02.638Z,9.13
2018-03-21T00:28:30.877Z,6.77
2018-03-21T00:30:59.112Z,8.03
2018-03-21T00:33:28.130Z,10.03
2018-03-21T00:35:56.361Z,8.47
2018-03-21T00:38:24.596Z,9.70
2018-03-21T00:40:53.212Z,9.80
2018-03-21T00:43:21.423Z,8.43
2018-03-21T00:45:49.653Z,10.73
2018-03-21T00:48:17.900Z,8.00
2018-03-21T00:50:46.119Z,9.07
2018-03-21T00:53:15.124Z,7.27
2018-03-21T00:55:44.132Z,11.93
2018-03-21T00:58:12.388Z,10.33
2018-03-21T01:00:41.377Z,8.40
2018-03-21T01:03:10.377Z,10.43
2018-03-21T01:05:38.614Z,12.23
2018-03-21T01:08:06.845Z,13.70
2018-03-21T01:10:35.083Z,8.50
2018-03-21T01:13:04.077Z,10.87
2018-03-21T01:15:33.093Z,15.47
2018-03-21T01:18:01.328Z,11.07
2018-03-21T01:20:29.572Z,13.33
2018-03-21T01:22:57.804Z,10.03
2018-03-21T01:25:26.052Z,10.47
2018-03-21T01:27:55.052Z,10.60
2018-03-21T01:30:24.061Z,9.47
2018-03-21T01:32:52.609Z,18.17
2018-03-21T01:35:20.828Z,8.60
2018-03-21T01:37:49.063Z,10.20
2018-03-21T01:40:17.296Z,10.37
2018-03-21T01:42:45.519Z,11.33
2018-03-21T01:45:14.564Z,13.50
2018-03-21T01:47:42.807Z,11.37
2018-03-21T01:50:11.041Z,9.27
2018-03-21T01:52:39.260Z,9.80
2018-03-21T01:55:07.505Z,9.97
2018-03-21T01:57:36.518Z,9.47
2018-03-21T02:00:04.753Z,11.37
2018-03-21T02:02:32.980Z,8.10
2018-03-21T02:05:01.225Z,8.53
2018-03-21T02:07:30.217Z,10.23
2018-03-21T02:09:59.223Z,7.40
2018-03-21T02:12:27.461Z,10.03
2018-03-21T02:14:55.944Z,9.03
2018-03-21T02:17:24.175Z,12.00
2018-03-21T02:19:53.187Z,11.13
2018-03-21T02:22:21.427Z,10.70
2018-03-21T02:24:49.660Z,12.80
2018-03-21T02:27:18.664Z,13.40
2018-03-21T02:29:47.660Z,9.93
2018-03-21T02:32:16.657Z,9.80
2018-03-21T02:34:44.886Z,12.73
2018-03-21T02:37:13.241Z,12.10
2018-03-21T02:39:41.477Z,10.30
2018-03-21T02:42:09.715Z,9.97
2018-03-21T02:44:37.946Z,10.50
2018-03-21T02:47:06.196Z,11.97
2018-03-21T02:49:34.425Z,8.20
2018-03-21T02:52:02.665Z,8.70
2018-03-21T02:54:30.905Z,8.10
2018-03-21T02:56:59.912Z,9.20
2018-03-21T02:59:28.136Z,9.87
2018-03-21T03:01:56.374Z,9.17
2018-03-21T03:04:24.628Z,8.33
2018-03-21T03:06:52.843Z,13.87
2018-03-21T03:09:21.071Z,8.57
2018-03-21T03:11:50.078Z,9.40
2018-03-21T03:14:18.312Z,14.50
2018-03-21T03:16:46.556Z,7.13
2018-03-21T03:19:14.784Z,11.47
2018-03-21T03:21:43.806Z,12.10
2018-03-21T03:24:12.032Z,8.57
2018-03-21T03:26:40.511Z,8.70
2018-03-21T03:29:08.751Z,10.20
2018-03-21T03:31:36.976Z,8.87
2018-03-21T03:34:05.984Z,9.43
2018-03-21T03:36:34.210Z,8.23
2018-03-21T03:39:02.453Z,10.43
2018-03-21T03:41:30.692Z,11.07
2018-03-21T03:43:58.945Z,9.27
2018-03-21T03:46:27.165Z,11.03
2018-03-21T03:48:55.408Z,11.63
2018-03-21T03:51:24.403Z,15.40
2018-03-21T03:53:58.401Z,11.60
2018-03-21T03:56:27.396Z,12.20
2018-03-21T03:58:56.413Z,10.23
2018-03-21T04:01:24.652Z,10.23
2018-03-21T04:03:53.660Z,12.00
2018-03-21T04:06:21.892Z,13.97
2018-03-21T04:08:50.131Z,15.17
2018-03-21T04:11:18.364Z,11.83
2018-03-21T04:13:47.372Z,8.40
2018-03-21T04:16:16.364Z,12.57
2018-03-21T04:18:45.381Z,9.90
2018-03-21T04:21:13.608Z,15.67
2018-03-21T04:23:42.705Z,12.10
2018-03-21T04:26:11.696Z,10.50
2018-03-21T04:28:40.708Z,9.33
2018-03-21T04:31:08.937Z,13.60
2018-03-21T04:33:37.187Z,12.03
2018-03-21T04:36:05.404Z,10.13
2018-03-21T04:38:34.433Z,11.87
2018-03-21T04:41:02.668Z,14.00
2018-03-21T04:43:31.665Z,10.80
2018-03-21T04:46:00.673Z,10.33
2018-03-21T04:48:28.908Z,14.03
2018-03-21T04:50:57.164Z,14.63
2018-03-21T04:53:25.396Z,12.63
2018-03-21T04:55:53.640Z,11.90
2018-03-21T04:58:21.877Z,13.70
2018-03-21T05:00:50.115Z,9.93
2018-03-21T05:03:18.350Z,12.07
2018-03-21T05:05:46.594Z,10.87
2018-03-21T05:08:14.823Z,10.03
2018-03-21T05:10:43.820Z,8.23
2018-03-21T05:13:12.827Z,13.23
2018-03-21T05:15:41.080Z,12.53
2018-03-21T05:18:10.067Z,9.90
2018-03-21T05:20:39.080Z,14.63
2018-03-21T05:23:07.305Z,13.70
2018-03-21T05:25:35.556Z,11.60
2018-03-21T05:28:03.792Z,10.47
2018-03-21T05:30:32.800Z,12.60
2018-03-21T05:33:01.050Z,13.10
2018-03-21T05:35:30.060Z,17.13
2018-03-21T05:37:58.280Z,8.83
2018-03-21T05:40:26.524Z,10.20
2018-03-21T05:42:54.751Z,10.93
2018-03-21T05:45:24.099Z,9.93
2018-03-21T05:47:52.432Z,9.53
2018-03-21T05:50:21.449Z,11.07
2018-03-21T05:52:49.760Z,13.00
2018-03-21T05:55:19.175Z,11.90
2018-03-21T05:57:47.685Z,10.10
2018-03-21T06:00:18.077Z,8.47
2018-03-21T06:02:46.452Z,11.40
2018-03-21T06:05:14.688Z,7.20
2018-03-21T06:07:42.932Z,12.43
2018-03-21T06:10:11.936Z,8.70
2018-03-21T06:12:40.936Z,10.20
2018-03-21T06:15:09.156Z,9.67
2018-03-21T06:17:37.400Z,10.70
2018-03-21T06:20:05.628Z,9.87
2018-03-21T06:22:33.880Z,13.60
2018-03-21T06:25:02.117Z,10.40
2018-03-21T06:27:30.759Z,10.00
2018-03-21T06:29:58.993Z,12.40
2018-03-21T06:32:27.287Z,12.23
2018-03-21T06:34:55.485Z,10.97
2018-03-21T06:37:24.496Z,10.90
2018-03-21T06:39:52.735Z,14.77
2018-03-21T06:42:20.972Z,12.57
2018-03-21T06:44:49.208Z,12.03
2018-03-21T06:47:18.226Z,17.13
2018-03-21T06:49:46.456Z,13.67
2018-03-21T06:52:14.703Z,11.63
2018-03-21T06:54:42.929Z,8.37
2018-03-21T06:57:11.175Z,10.83
2018-03-21T06:59:40.177Z,13.50
2018-03-21T07:02:09.189Z,12.37
2018-03-21T07:04:37.417Z,10.27
2018-03-21T07:07:05.665Z,9.77
2018-03-21T07:09:33.888Z,10.93
2018-03-21T07:12:02.875Z,11.97
2018-03-21T07:14:43.812Z,9.53
2018-03-21T07:17:12.072Z,9.27
2018-03-21T07:19:40.288Z,8.77
2018-03-21T07:22:08.519Z,7.97
2018-03-21T07:24:36.748Z,7.70
2018-03-21T07:27:05.745Z,11.53
2018-03-21T07:29:34.962Z,9.90
2018-03-21T07:32:03.187Z,6.80
2018-03-21T07:34:31.434Z,8.07
2018-03-21T07:36:59.657Z,9.40
2018-03-21T07:39:28.662Z,7.07
2018-03-21T07:41:57.654Z,9.23
2018-03-21T07:44:26.652Z,6.60
2018-03-21T07:46:54.883Z,9.27
2018-03-21T07:49:24.908Z,7.53
2018-03-21T07:51:53.129Z,13.43
2018-03-21T07:54:21.368Z,9.37
2018-03-21T07:56:50.348Z,9.27
2018-03-21T07:59:18.585Z,13.10
2018-03-21T08:01:47.573Z,8.97
2018-03-21T08:04:15.804Z,8.87
2018-03-21T08:06:44.796Z,10.37
2018-03-21T08:09:13.792Z,17.17
2018-03-21T08:11:42.017Z,10.53
2018-03-21T08:14:10.249Z,8.43
2018-03-21T08:16:38.469Z,8.40
2018-03-21T08:19:06.705Z,12.43
2018-03-21T08:21:34.927Z,9.17
2018-03-21T08:24:03.153Z,14.20
2018-03-21T08:26:31.380Z,12.07
2018-03-21T08:28:59.607Z,12.10
2018-03-21T08:31:27.844Z,15.00
2018-03-21T08:33:56.840Z,10.97
2018-03-21T08:36:25.849Z,11.10
2018-03-21T08:38:54.081Z,14.43
2018-03-21T08:41:22.313Z,10.97
2018-03-21T08:43:50.752Z,14.87
2018-03-21T08:46:19.749Z,11.50
2018-03-21T08:48:48.728Z,9.63
2018-03-21T08:51:17.732Z,10.20
2018-03-21T08:53:46.720Z,10.93
2018-03-21T08:56:15.729Z,11.80
2018-03-21T08:58:43.949Z,11.47
2018-03-21T09:01:12.186Z,12.20
2018-03-21T09:03:40.436Z,9.90
2018-03-21T09:06:09.436Z,10.83
2018-03-21T09:08:37.668Z,12.20
2018-03-21T09:11:05.897Z,9.97
2018-03-21T09:13:34.128Z,13.07
2018-03-21T09:16:02.357Z,12.13
2018-03-21T09:18:30.581Z,10.67
2018-03-21T09:20:59.588Z,10.10
2018-03-21T09:23:27.816Z,15.00
2018-03-21T09:25:56.049Z,11.40
2018-03-21T09:28:24.277Z,12.10
2018-03-21T09:30:52.770Z,11.57
2018-03-21T09:33:20.989Z,11.87
2018-03-21T09:35:49.225Z,7.60
2018-03-21T09:38:18.212Z,9.67
2018-03-21T09:40:47.216Z,10.80
2018-03-21T09:43:16.207Z,9.90
2018-03-21T09:45:45.384Z,10.30
2018-03-21T09:48:14.373Z,8.00
2018-03-21T09:50:42.594Z,7.60
2018-03-21T09:53:10.832Z,7.17
2018-03-21T09:55:39.849Z,7.80
2018-03-21T09:58:08.088Z,7.13
2018-03-21T10:00:36.335Z,6.87
2018-03-21T10:03:04.529Z,7.80
2018-03-21T10:05:32.750Z,7.67
2018-03-21T10:08:00.982Z,7.63
2018-03-21T10:10:29.205Z,7.53
2018-03-21T10:12:57.441Z,8.37
2018-03-21T10:15:26.425Z,8.70
2018-03-21T10:17:55.423Z,10.80
2018-03-21T10:20:24.417Z,10.83
2018-03-21T10:22:53.430Z,10.77
2018-03-21T10:25:21.665Z,8.57
2018-03-21T10:27:49.895Z,10.97
2018-03-21T10:30:18.124Z,10.50
2018-03-21T10:32:47.133Z,11.23
2018-03-21T10:35:15.360Z,9.40
2018-03-21T10:37:43.625Z,10.97
2018-03-21T10:40:12.233Z,10.33
2018-03-21T10:42:40.509Z,9.53
2018-03-21T10:45:08.714Z,10.30
2018-03-21T10:47:37.756Z,10.73
2018-03-21T10:50:05.957Z,9.50
2018-03-21T10:52:38.914Z,12.13
2018-03-21T10:55:03.185Z,11.07
2018-03-21T10:57:31.409Z,11.80
2018-03-21T10:59:59.661Z,12.20
2018-03-21T11:05:27.556Z,8.80
2018-03-21T11:07:56.555Z,9.90
2018-03-21T11:10:25.550Z,11.60
2018-03-21T11:12:53.799Z,12.83
2018-03-21T11:15:22.020Z,10.17
2018-03-21T11:17:50.239Z,11.60
2018-03-21T11:20:18.473Z,8.70
2018-03-21T11:22:46.702Z,10.27
2018-03-21T11:25:15.710Z,9.57
2018-03-21T11:27:44.687Z,9.40
2018-03-21T11:30:13.684Z,11.63
2018-03-21T11:32:42.924Z,10.87
2018-03-21T11:35:11.133Z,11.07
2018-03-21T11:37:39.356Z,12.73
2018-03-21T11:40:07.599Z,13.80
2018-03-21T11:42:36.599Z,14.70
2018-03-21T11:45:04.849Z,14.63
2018-03-21T11:47:33.081Z,15.40
2018-03-21T11:50:01.317Z,15.40
2018-03-21T11:52:29.544Z,12.90
2018-03-21T11:54:58.054Z,12.73
2018-03-21T11:57:26.277Z,16.73
2018-03-21T11:59:54.507Z,11.73
2018-03-21T12:02:23.504Z,13.83
2018-03-21T12:04:52.508Z,12.57
2018-03-21T12:07:20.744Z,12.33
2018-03-21T12:09:48.976Z,14.00
2018-03-21T12:12:17.196Z,15.73
2018-03-21T12:14:45.431Z,13.90
2018-03-21T12:17:13.665Z,13.97
2018-03-21T12:19:42.673Z,12.97
2018-03-21T12:22:10.912Z,12.20
2018-03-21T12:24:39.909Z,13.17
2018-03-21T12:27:08.917Z,12.90
2018-03-21T12:29:37.145Z,16.23
2018-03-21T12:32:05.384Z,13.60
2018-03-21T12:34:33.613Z,12.17
2018-03-21T12:37:01.849Z,10.80
2018-03-21T12:39:30.073Z,14.07
2018-03-21T12:41:59.076Z,10.97
2018-03-21T12:44:27.353Z,11.07
2018-03-21T12:46:55.549Z,12.40
2018-03-21T12:49:23.775Z,11.10
2018-03-21T12:51:52.013Z,10.50
2018-03-21T12:54:20.236Z,11.20
2018-03-21T12:56:49.231Z,10.93
2018-03-21T12:59:17.455Z,11.47
2018-03-21T13:01:45.706Z,14.30
2018-03-21T13:04:13.928Z,11.20
2018-03-21T13:06:42.164Z,13.37
2018-03-21T13:09:10.388Z,10.53
2018-03-21T13:11:39.402Z,12.40
2018-03-21T13:14:07.619Z,12.23
2018-03-21T13:16:35.859Z,10.00
2018-03-21T13:19:04.082Z,10.40
2018-03-21T13:21:32.314Z,11.13
2018-03-21T13:24:00.537Z,10.27
2018-03-21T13:26:28.772Z,11.30
2018-03-21T13:28:57.761Z,12.27
2018-03-21T13:31:25.987Z,11.33
2018-03-21T13:33:54.993Z,8.00
2018-03-21T13:36:23.220Z,13.90
2018-03-21T13:38:51.461Z,8.07
2018-03-21T13:41:19.683Z,10.77
2018-03-21T13:43:47.924Z,12.90
2018-03-21T13:46:16.186Z,11.53
2018-03-21T13:48:45.160Z,10.63
2018-03-21T13:51:13.382Z,8.87
2018-03-21T13:53:41.616Z,9.93
2018-03-21T13:56:09.838Z,10.37
2018-03-21T13:58:38.069Z,11.10
2018-03-21T14:01:06.305Z,7.73
2018-03-21T14:03:35.311Z,8.77
2018-03-21T14:06:04.301Z,11.07
2018-03-21T14:08:32.542Z,10.33
2018-03-21T14:11:00.823Z,12.93
2018-03-21T14:13:29.013Z,9.63
2018-03-21T14:15:57.999Z,9.50
2018-03-21T14:18:27.000Z,16.50
2018-03-21T14:20:55.224Z,12.33
2018-03-21T14:23:23.456Z,11.73
2018-03-21T14:25:51.675Z,8.70
2018-03-21T14:28:19.929Z,11.13
2018-03-21T14:30:48.152Z,13.97
2018-03-21T14:33:17.162Z,10.67
2018-03-21T14:35:46.155Z,9.43
2018-03-21T14:38:15.167Z,8.67
2018-03-21T14:40:43.387Z,11.67
2018-03-21T14:43:11.610Z,8.43
2018-03-21T14:45:39.847Z,8.33
2018-03-21T14:48:08.835Z,8.60
2018-03-21T14:50:37.076Z,9.47
2018-03-21T14:53:05.302Z,13.33
2018-03-21T14:55:34.300Z,11.83
2018-03-21T14:58:02.515Z,9.40
2018-03-21T15:00:30.744Z,9.57
2018-03-21T15:02:58.961Z,7.97
2018-03-21T15:05:27.191Z,9.70
2018-03-21T15:07:55.416Z,10.27
2018-03-21T15:10:23.657Z,10.77
2018-03-21T15:12:51.890Z,10.40
2018-03-21T15:15:20.900Z,10.87
2018-03-21T15:17:49.888Z,7.57
2018-03-21T15:20:18.886Z,8.53
2018-03-21T15:22:47.866Z,10.17
2018-03-21T15:25:16.869Z,11.90
2018-03-21T15:27:45.089Z,10.10
2018-03-21T15:30:13.328Z,11.43
2018-03-21T15:32:41.560Z,9.43
2018-03-21T15:35:09.796Z,9.93
2018-03-21T15:37:38.025Z,10.43
2018-03-21T15:40:07.034Z,11.67
2018-03-21T15:42:35.255Z,9.17
2018-03-21T15:45:03.496Z,13.13
2018-03-21T15:47:31.720Z,13.33
2018-03-21T15:49:59.981Z,11.37
2018-03-21T15:52:28.208Z,11.90
2018-03-21T15:54:56.443Z,11.57
2018-03-21T15:57:24.680Z,12.57
2018-03-21T15:59:52.908Z,11.97
2018-03-21T16:02:21.992Z,11.70
2018-03-21T16:04:50.988Z,18.63
2018-03-21T16:07:19.992Z,15.70
2018-03-21T16:09:48.221Z,16.23
2018-03-21T16:12:16.557Z,13.20
2018-03-21T16:14:44.797Z,14.77
2018-03-21T16:17:13.010Z,17.47
2018-03-21T16:19:41.233Z,13.60
2018-03-21T16:22:09.472Z,12.27
2018-03-21T16:24:37.705Z,15.77
2018-03-21T16:27:07.141Z,14.50
2018-03-21T16:29:36.365Z,13.30
2018-03-21T16:32:04.600Z,16.27
2018-03-21T16:34:32.838Z,13.87
2018-03-21T16:37:01.844Z,21.80
2018-03-21T16:39:30.067Z,9.77
2018-03-21T16:41:58.303Z,11.33
2018-03-21T16:44:26.531Z,12.07
2018-03-21T16:46:54.777Z,12.27
2018-03-21T16:49:27.224Z,13.10
2018-03-21T16:51:55.508Z,16.57
2018-03-21T16:54:23.733Z,16.10
2018-03-21T16:56:51.972Z,16.80
2018-03-21T16:59:20.192Z,13.57
2018-03-21T17:01:49.234Z,14.97
2018-03-21T17:04:17.566Z,11.00
2018-03-21T17:06:46.588Z,18.43
2018-03-21T17:09:14.819Z,15.90
2018-03-21T17:11:43.045Z,13.97
2018-03-21T17:14:11.284Z,13.37
2018-03-21T17:16:39.512Z,12.20
2018-03-21T17:19:08.516Z,16.13
2018-03-21T17:21:36.744Z,15.33
2018-03-21T17:24:04.981Z,16.10
2018-03-21T17:26:33.247Z,13.23
2018-03-21T17:29:01.484Z,15.80
2018-03-21T17:31:30.481Z,15.30
2018-03-21T17:33:58.724Z,13.30
2018-03-21T17:36:27.273Z,15.53
2018-03-21T17:38:55.504Z,14.43
2018-03-21T17:41:23.720Z,14.57
2018-03-21T17:43:52.753Z,13.37
2018-03-21T17:46:21.046Z,13.60
2018-03-21T17:48:49.310Z,11.70
2018-03-21T17:51:17.755Z,11.70
2018-03-21T17:53:46.055Z,12.93
2018-03-21T17:56:14.285Z,10.63
2018-03-21T17:58:42.561Z,10.87
2018-03-21T18:01:12.697Z,13.24
2018-03-21T18:03:40.946Z,14.33
2018-03-21T18:06:09.173Z,12.33
2018-03-21T18:08:37.418Z,11.87
2018-03-21T18:11:06.408Z,11.87
2018-03-21T18:13:35.424Z,12.33
2018-03-21T18:16:03.664Z,10.97
2018-03-21T18:18:32.668Z,12.40
2018-03-21T18:21:01.885Z,12.77
2018-03-21T18:23:30.100Z,14.00
2018-03-21T18:25:58.348Z,15.27
2018-03-21T18:28:26.572Z,14.37
2018-03-21T18:30:55.580Z,14.17
2018-03-21T18:33:23.809Z,13.30
2018-03-21T18:35:52.291Z,16.23
2018-03-21T18:38:20.489Z,17.03
2018-03-21T18:40:49.492Z,15.87
2018-03-21T18:43:18.509Z,18.57
2018-03-21T18:45:46.736Z,17.60
2018-03-21T18:48:14.965Z,15.03
2018-03-21T18:50:43.214Z,13.30
2018-03-21T18:53:11.428Z,13.00
2018-03-21T18:55:39.668Z,15.50
2018-03-21T18:58:07.908Z,11.43
2018-03-21T19:00:36.139Z,12.87
2018-03-21T19:03:04.369Z,12.80
2018-03-21T19:05:33.385Z,14.73
2018-03-21T19:08:01.610Z,13.60
2018-03-21T19:10:29.850Z,13.27
2018-03-21T19:12:58.089Z,13.40
2018-03-21T19:15:26.337Z,11.43
2018-03-21T19:17:54.563Z,13.47
2018-03-21T19:20:22.793Z,14.80
2018-03-21T19:22:51.783Z,11.83
2018-03-21T19:25:20.789Z,13.13
2018-03-21T19:27:49.017Z,11.13
2018-03-21T19:30:17.407Z,13.70
2018-03-21T19:32:45.630Z,11.57
2018-03-21T19:35:13.881Z,18.47
2018-03-21T19:37:42.907Z,18.10
2018-03-21T19:40:11.134Z,11.03
2018-03-21T19:42:39.377Z,12.73
2018-03-21T19:45:07.596Z,10.70
2018-03-21T19:47:36.608Z,12.73
2018-03-21T19:50:04.824Z,13.87
2018-03-21T19:52:33.071Z,15.23
2018-03-21T19:55:01.296Z,16.90
2018-03-21T19:57:30.309Z,13.87
2018-03-21T19:59:58.580Z,15.97
2018-03-21T20:02:26.821Z,15.13
2018-03-21T20:04:55.064Z,15.40
2018-03-21T20:07:23.301Z,16.00
2018-03-21T20:09:52.509Z,14.27
2018-03-21T20:12:20.742Z,15.10
2018-03-21T20:14:48.968Z,13.83
2018-03-21T20:17:17.208Z,15.40
2018-03-21T20:19:46.212Z,18.83
2018-03-21T20:22:14.451Z,20.57
2018-03-21T20:24:42.685Z,20.73
2018-03-21T20:27:10.969Z,19.50
2018-03-21T20:29:39.201Z,19.87
2018-03-21T20:32:08.269Z,18.80
2018-03-21T20:34:36.497Z,18.67
2018-03-21T20:37:04.749Z,19.53
2018-03-21T20:39:32.980Z,23.77
2018-03-21T20:42:01.225Z,24.50
2018-03-21T20:44:29.503Z,21.33
2018-03-21T20:46:57.740Z,24.37
2018-03-21T20:49:26.728Z,24.80
2018-03-21T20:51:55.721Z,26.97
2018-03-21T20:54:23.967Z,27.50
2018-03-21T20:56:52.201Z,25.50
2018-03-21T20:59:20.448Z,27.83
2018-03-21T21:01:48.682Z,27.87
2018-03-21T21:04:16.924Z,26.27
2018-03-21T21:06:45.157Z,31.13
2018-03-21T21:09:14.174Z,33.50
2018-03-21T21:11:42.409Z,28.30
2018-03-21T21:14:10.652Z,34.40
2018-03-21T21:16:38.885Z,32.47
2018-03-21T21:19:07.128Z,38.47
2018-03-21T21:21:35.358Z,39.67
2018-03-21T21:24:03.604Z,39.40
2018-03-21T21:26:31.839Z,37.00
2018-03-21T21:29:00.081Z,35.97
2018-03-21T21:31:28.300Z,37.83
2018-03-21T21:33:57.307Z,33.20
2018-03-21T21:36:26.594Z,38.50
2018-03-21T21:38:54.829Z,38.23
2018-03-21T21:41:23.060Z,37.10
2018-03-21T21:43:51.305Z,38.50
2018-03-21T21:46:19.533Z,37.80
2018-03-21T21:48:47.784Z,38.10
2018-03-21T21:51:16.015Z,37.83
2018-03-21T21:53:44.259Z,39.00
2018-03-21T21:56:12.480Z,44.83
2018-03-21T21:58:41.484Z,41.03
2018-03-21T22:01:10.492Z,44.83
2018-03-21T22:03:38.720Z,40.47
2018-03-21T22:06:06.969Z,45.10
2018-03-21T22:08:35.192Z,49.17
2018-03-21T22:11:04.209Z,42.97
2018-03-21T22:13:32.445Z,41.27
2018-03-21T22:16:00.684Z,44.57
2018-03-21T22:18:28.914Z,45.83
2018-03-21T22:20:57.920Z,43.87
2018-03-21T22:23:26.151Z,44.80
2018-03-21T22:25:54.396Z,45.40
2018-03-21T22:28:22.629Z,42.50
2018-03-21T22:30:50.872Z,46.43
2018-03-21T22:33:19.088Z,41.63
2018-03-21T22:35:47.325Z,41.50
2018-03-21T22:38:16.317Z,41.43
2018-03-21T22:40:44.564Z,44.17
2018-03-21T22:43:13.556Z,41.20
2018-03-21T22:45:42.564Z,47.57
2018-03-21T22:48:10.783Z,39.43
2018-03-21T22:50:39.028Z,40.53
2018-03-21T22:53:08.019Z,44.47
2018-03-21T22:55:37.024Z,38.57
2018-03-21T22:58:05.273Z,39.83
2018-03-21T23:00:33.509Z,38.70
2018-03-21T23:03:01.737Z,42.53
2018-03-21T23:05:30.744Z,37.83
2018-03-21T23:07:58.978Z,38.23
2018-03-21T23:10:27.216Z,37.27
2018-03-21T23:12:55.448Z,40.13
2018-03-21T23:15:24.445Z,35.17
2018-03-21T23:17:53.452Z,36.43
2018-03-21T23:20:21.677Z,38.10
2018-03-21T23:22:49.916Z,35.73
2018-03-21T23:25:18.148Z,33.50
2018-03-21T23:27:47.227Z,37.07
2018-03-21T23:30:15.443Z,36.07
2018-03-21T23:32:43.682Z,38.83
2018-03-21T23:35:12.671Z,36.33
2018-03-21T23:37:41.693Z,34.83
2018-03-21T23:40:09.922Z,34.73
2018-03-21T23:42:38.175Z,32.43
2018-03-21T23:45:06.412Z,33.13
2018-03-21T23:47:34.675Z,37.07
2018-03-21T23:50:02.894Z,31.83
2018-03-21T23:52:31.902Z,28.50
2018-03-21T23:55:00.138Z,29.03
2018-03-21T23:57:28.385Z,33.63
2018-03-21T23:59:57.385Z,34.20
